sensor_id;sensor_type;location;lat;lon;timestamp;P1;durP1;ratioP1;P2;durP2;ratioP2
32748;SDS011;19119;52.474;13.710;2023-08-21T00:02:22;14.38;;;10.60;;
32748;SDS011;19119;52.474;13.710;2023-08-21T00:04:48;16.02;;;10.57;;
32748;SDS011;19119;52.474;13.710;2023-08-21T00:07:13;17.77;;;10.38;;
32748;SDS011;19119;52.474;13.710;2023-08-21T00:09:39;15.85;;;10.40;;
32748;SDS011;19119;52.474;13.710;2023-08-21T00:12:05;14.85;;;10.23;;
32748;SDS011;19119;52.474;13.710;2023-08-21T00:14:31;15.88;;;10.18;;
32748;SDS011;19119;52.474;13.710;2023-08-21T00:16:56;14.75;;;10.18;;
32748;SDS011;19119;52.474;13.710;2023-08-21T00:19:25;14.25;;;10.65;;
32748;SDS011;19119;52.474;13.710;2023-08-21T00:21:51;13.20;;;9.93;;
32748;SDS011;19119;52.474;13.710;2023-08-21T00:24:16;15.75;;;10.95;;
32748;SDS011;19119;52.474;13.710;2023-08-21T00:26:43;11.82;;;9.50;;
32748;SDS011;19119;52.474;13.710;2023-08-21T00:29:08;15.32;;;10.30;;
32748;SDS011;19119;52.474;13.710;2023-08-21T00:31:34;15.60;;;10.70;;
32748;SDS011;19119;52.474;13.710;2023-08-21T00:33:59;15.90;;;10.45;;
32748;SDS011;19119;52.474;13.710;2023-08-21T00:36:25;14.77;;;9.82;;
32748;SDS011;19119;52.474;13.710;2023-08-21T00:38:50;14.80;;;11.07;;
32748;SDS011;19119;52.474;13.710;2023-08-21T00:41:16;13.63;;;10.05;;
32748;SDS011;19119;52.474;13.710;2023-08-21T00:43:42;15.50;;;10.02;;
32748;SDS011;19119;52.474;13.710;2023-08-21T00:46:07;12.90;;;9.13;;
32748;SDS011;19119;52.474;13.710;2023-08-21T00:48:33;14.50;;;9.95;;
32748;SDS011;19119;52.474;13.710;2023-08-21T00:50:59;12.82;;;9.52;;
32748;SDS011;19119;52.474;13.710;2023-08-21T00:53:24;16.13;;;10.10;;
32748;SDS011;19119;52.474;13.710;2023-08-21T00:55:50;14.48;;;9.85;;
32748;SDS011;19119;52.474;13.710;2023-08-21T00:58:16;16.10;;;9.98;;
32748;SDS011;19119;52.474;13.710;2023-08-21T01:00:44;17.98;;;10.85;;
32748;SDS011;19119;52.474;13.710;2023-08-21T01:03:12;13.77;;;10.25;;
32748;SDS011;19119;52.474;13.710;2023-08-21T01:05:37;15.65;;;10.25;;
32748;SDS011;19119;52.474;13.710;2023-08-21T01:08:05;12.80;;;10.35;;
32748;SDS011;19119;52.474;13.710;2023-08-21T01:10:50;14.90;;;10.20;;
32748;SDS011;19119;52.474;13.710;2023-08-21T01:16:12;13.02;;;9.18;;
32748;SDS011;19119;52.474;13.710;2023-08-21T01:18:39;14.48;;;9.82;;
32748;SDS011;19119;52.474;13.710;2023-08-21T01:21:05;16.08;;;10.82;;
32748;SDS011;19119;52.474;13.710;2023-08-21T01:23:35;15.63;;;10.27;;
32748;SDS011;19119;52.474;13.710;2023-08-21T01:26:01;14.45;;;10.15;;
32748;SDS011;19119;52.474;13.710;2023-08-21T01:28:27;13.20;;;9.35;;
32748;SDS011;19119;52.474;13.710;2023-08-21T01:31:36;15.07;;;9.35;;
32748;SDS011;19119;52.474;13.710;2023-08-21T01:33:50;15.85;;;10.40;;
32748;SDS011;19119;52.474;13.710;2023-08-21T01:36:21;15.82;;;10.77;;
32748;SDS011;19119;52.474;13.710;2023-08-21T01:38:47;15.70;;;10.43;;
32748;SDS011;19119;52.474;13.710;2023-08-21T01:41:13;14.07;;;9.93;;
32748;SDS011;19119;52.474;13.710;2023-08-21T01:43:39;16.58;;;11.00;;
32748;SDS011;19119;52.474;13.710;2023-08-21T01:46:05;16.73;;;10.55;;
32748;SDS011;19119;52.474;13.710;2023-08-21T01:48:31;15.52;;;10.60;;
32748;SDS011;19119;52.474;13.710;2023-08-21T01:50:56;15.65;;;10.40;;
32748;SDS011;19119;52.474;13.710;2023-08-21T01:53:22;14.43;;;10.02;;
32748;SDS011;19119;52.474;13.710;2023-08-21T01:55:48;11.68;;;9.07;;
32748;SDS011;19119;52.474;13.710;2023-08-21T01:58:13;13.63;;;9.95;;
32748;SDS011;19119;52.474;13.710;2023-08-21T02:00:39;15.50;;;10.65;;
32748;SDS011;19119;52.474;13.710;2023-08-21T02:03:05;13.55;;;9.98;;
32748;SDS011;19119;52.474;13.710;2023-08-21T02:05:30;16.30;;;9.90;;
32748;SDS011;19119;52.474;13.710;2023-08-21T02:08:01;14.88;;;9.98;;
32748;SDS011;19119;52.474;13.710;2023-08-21T02:10:27;13.32;;;9.70;;
32748;SDS011;19119;52.474;13.710;2023-08-21T02:12:52;15.00;;;9.75;;
32748;SDS011;19119;52.474;13.710;2023-08-21T02:15:19;12.82;;;9.23;;
32748;SDS011;19119;52.474;13.710;2023-08-21T02:17:46;14.93;;;9.82;;
32748;SDS011;19119;52.474;13.710;2023-08-21T02:20:12;15.18;;;9.32;;
32748;SDS011;19119;52.474;13.710;2023-08-21T02:22:38;13.32;;;9.45;;
32748;SDS011;19119;52.474;13.710;2023-08-21T02:25:03;13.65;;;9.20;;
32748;SDS011;19119;52.474;13.710;2023-08-21T02:27:29;14.68;;;9.73;;
32748;SDS011;19119;52.474;13.710;2023-08-21T02:29:55;14.50;;;9.88;;
32748;SDS011;19119;52.474;13.710;2023-08-21T02:32:21;16.10;;;10.52;;
32748;SDS011;19119;52.474;13.710;2023-08-21T02:34:46;12.88;;;9.95;;
32748;SDS011;19119;52.474;13.710;2023-08-21T02:37:13;14.82;;;9.18;;
32748;SDS011;19119;52.474;13.710;2023-08-21T02:39:39;15.10;;;10.25;;
32748;SDS011;19119;52.474;13.710;2023-08-21T02:42:04;14.57;;;10.93;;
32748;SDS011;19119;52.474;13.710;2023-08-21T02:44:30;14.98;;;9.85;;
32748;SDS011;19119;52.474;13.710;2023-08-21T02:46:55;15.02;;;10.38;;
32748;SDS011;19119;52.474;13.710;2023-08-21T02:49:21;14.23;;;10.65;;
32748;SDS011;19119;52.474;13.710;2023-08-21T02:51:47;14.13;;;10.73;;
32748;SDS011;19119;52.474;13.710;2023-08-21T02:54:12;12.77;;;9.50;;
32748;SDS011;19119;52.474;13.710;2023-08-21T02:56:38;13.27;;;9.07;;
32748;SDS011;19119;52.474;13.710;2023-08-21T02:59:03;16.48;;;9.48;;
32748;SDS011;19119;52.474;13.710;2023-08-21T03:01:29;15.63;;;9.70;;
32748;SDS011;19119;52.474;13.710;2023-08-21T03:03:54;13.95;;;9.60;;
32748;SDS011;19119;52.474;13.710;2023-08-21T03:06:20;14.55;;;9.40;;
32748;SDS011;19119;52.474;13.710;2023-08-21T03:08:46;13.63;;;9.95;;
32748;SDS011;19119;52.474;13.710;2023-08-21T03:11:11;12.57;;;9.70;;
32748;SDS011;19119;52.474;13.710;2023-08-21T03:13:37;16.77;;;10.18;;
32748;SDS011;19119;52.474;13.710;2023-08-21T03:16:03;13.07;;;9.48;;
32748;SDS011;19119;52.474;13.710;2023-08-21T03:18:30;16.60;;;10.18;;
32748;SDS011;19119;52.474;13.710;2023-08-21T03:20:56;13.90;;;9.13;;
32748;SDS011;19119;52.474;13.710;2023-08-21T03:23:22;14.48;;;9.57;;
32748;SDS011;19119;52.474;13.710;2023-08-21T03:25:48;13.60;;;9.77;;
32748;SDS011;19119;52.474;13.710;2023-08-21T03:28:16;13.65;;;9.90;;
32748;SDS011;19119;52.474;13.710;2023-08-21T03:30:42;16.10;;;10.90;;
32748;SDS011;19119;52.474;13.710;2023-08-21T03:33:07;17.25;;;11.02;;
32748;SDS011;19119;52.474;13.710;2023-08-21T03:35:33;14.70;;;9.82;;
32748;SDS011;19119;52.474;13.710;2023-08-21T03:37:59;14.02;;;9.38;;
32748;SDS011;19119;52.474;13.710;2023-08-21T03:40:24;12.98;;;9.27;;
32748;SDS011;19119;52.474;13.710;2023-08-21T03:42:50;14.95;;;10.18;;
32748;SDS011;19119;52.474;13.710;2023-08-21T03:45:15;13.80;;;9.70;;
32748;SDS011;19119;52.474;13.710;2023-08-21T03:47:41;15.02;;;9.75;;
32748;SDS011;19119;52.474;13.710;2023-08-21T03:50:06;14.88;;;10.20;;
32748;SDS011;19119;52.474;13.710;2023-08-21T03:52:32;14.80;;;8.57;;
32748;SDS011;19119;52.474;13.710;2023-08-21T03:54:57;15.30;;;10.25;;
32748;SDS011;19119;52.474;13.710;2023-08-21T03:57:23;16.10;;;10.25;;
32748;SDS011;19119;52.474;13.710;2023-08-21T03:59:48;19.65;;;10.25;;
32748;SDS011;19119;52.474;13.710;2023-08-21T04:02:14;14.75;;;10.20;;
32748;SDS011;19119;52.474;13.710;2023-08-21T04:04:40;14.23;;;10.00;;
32748;SDS011;19119;52.474;13.710;2023-08-21T04:07:05;14.02;;;9.80;;
32748;SDS011;19119;52.474;13.710;2023-08-21T04:09:31;12.55;;;9.75;;
32748;SDS011;19119;52.474;13.710;2023-08-21T04:11:56;15.02;;;9.80;;
32748;SDS011;19119;52.474;13.710;2023-08-21T04:14:22;15.93;;;10.55;;
32748;SDS011;19119;52.474;13.710;2023-08-21T04:16:47;13.18;;;9.25;;
32748;SDS011;19119;52.474;13.710;2023-08-21T04:19:13;13.18;;;8.98;;
32748;SDS011;19119;52.474;13.710;2023-08-21T04:21:38;12.07;;;9.15;;
32748;SDS011;19119;52.474;13.710;2023-08-21T04:24:04;13.55;;;9.25;;
32748;SDS011;19119;52.474;13.710;2023-08-21T04:26:30;12.93;;;9.52;;
32748;SDS011;19119;52.474;13.710;2023-08-21T04:28:55;14.80;;;9.35;;
32748;SDS011;19119;52.474;13.710;2023-08-21T04:31:21;13.32;;;9.88;;
32748;SDS011;19119;52.474;13.710;2023-08-21T04:33:46;12.05;;;9.80;;
32748;SDS011;19119;52.474;13.710;2023-08-21T04:36:15;14.50;;;10.15;;
32748;SDS011;19119;52.474;13.710;2023-08-21T04:38:41;15.63;;;10.45;;
32748;SDS011;19119;52.474;13.710;2023-08-21T04:41:07;13.27;;;9.77;;
32748;SDS011;19119;52.474;13.710;2023-08-21T04:43:33;17.60;;;10.48;;
32748;SDS011;19119;52.474;13.710;2023-08-21T04:45:59;13.52;;;9.68;;
32748;SDS011;19119;52.474;13.710;2023-08-21T04:48:24;14.32;;;10.02;;
32748;SDS011;19119;52.474;13.710;2023-08-21T04:50:50;19.52;;;10.40;;
32748;SDS011;19119;52.474;13.710;2023-08-21T04:53:16;14.68;;;10.30;;
32748;SDS011;19119;52.474;13.710;2023-08-21T04:55:41;16.48;;;10.63;;
32748;SDS011;19119;52.474;13.710;2023-08-21T04:58:07;16.80;;;10.57;;
32748;SDS011;19119;52.474;13.710;2023-08-21T05:00:34;15.05;;;10.45;;
32748;SDS011;19119;52.474;13.710;2023-08-21T05:02:59;16.02;;;11.35;;
32748;SDS011;19119;52.474;13.710;2023-08-21T05:05:25;16.40;;;10.20;;
32748;SDS011;19119;52.474;13.710;2023-08-21T05:07:51;17.90;;;10.45;;
32748;SDS011;19119;52.474;13.710;2023-08-21T05:10:18;18.40;;;9.82;;
32748;SDS011;19119;52.474;13.710;2023-08-21T05:12:44;13.32;;;9.23;;
32748;SDS011;19119;52.474;13.710;2023-08-21T05:15:10;13.48;;;9.43;;
32748;SDS011;19119;52.474;13.710;2023-08-21T05:17:35;13.25;;;7.78;;
32748;SDS011;19119;52.474;13.710;2023-08-21T05:20:01;13.10;;;9.00;;
32748;SDS011;19119;52.474;13.710;2023-08-21T05:22:27;10.98;;;7.20;;
32748;SDS011;19119;52.474;13.710;2023-08-21T05:24:52;11.55;;;7.38;;
32748;SDS011;19119;52.474;13.710;2023-08-21T05:27:18;13.85;;;7.07;;
32748;SDS011;19119;52.474;13.710;2023-08-21T05:29:44;12.88;;;8.38;;
32748;SDS011;19119;52.474;13.710;2023-08-21T05:32:11;10.40;;;7.07;;
32748;SDS011;19119;52.474;13.710;2023-08-21T05:34:36;10.00;;;6.93;;
32748;SDS011;19119;52.474;13.710;2023-08-21T05:37:02;12.82;;;6.93;;
32748;SDS011;19119;52.474;13.710;2023-08-21T05:39:28;8.10;;;6.78;;
32748;SDS011;19119;52.474;13.710;2023-08-21T05:41:53;14.13;;;6.45;;
32748;SDS011;19119;52.474;13.710;2023-08-21T05:44:19;12.50;;;6.57;;
32748;SDS011;19119;52.474;13.710;2023-08-21T05:46:44;8.88;;;5.95;;
32748;SDS011;19119;52.474;13.710;2023-08-21T05:49:10;12.98;;;6.25;;
32748;SDS011;19119;52.474;13.710;2023-08-21T05:51:35;11.65;;;6.68;;
32748;SDS011;19119;52.474;13.710;2023-08-21T05:54:01;8.82;;;6.47;;
32748;SDS011;19119;52.474;13.710;2023-08-21T05:56:27;10.02;;;6.70;;
32748;SDS011;19119;52.474;13.710;2023-08-21T05:58:52;12.25;;;7.10;;
32748;SDS011;19119;52.474;13.710;2023-08-21T06:01:18;11.93;;;7.30;;
32748;SDS011;19119;52.474;13.710;2023-08-21T06:03:43;9.00;;;6.70;;
32748;SDS011;19119;52.474;13.710;2023-08-21T06:06:09;10.57;;;7.22;;
32748;SDS011;19119;52.474;13.710;2023-08-21T06:08:34;11.13;;;7.00;;
32748;SDS011;19119;52.474;13.710;2023-08-21T06:11:00;11.68;;;7.18;;
32748;SDS011;19119;52.474;13.710;2023-08-21T06:13:25;12.60;;;6.78;;
32748;SDS011;19119;52.474;13.710;2023-08-21T06:15:51;9.75;;;6.78;;
32748;SDS011;19119;52.474;13.710;2023-08-21T06:18:18;8.90;;;6.18;;
32748;SDS011;19119;52.474;13.710;2023-08-21T06:20:43;8.93;;;6.80;;
32748;SDS011;19119;52.474;13.710;2023-08-21T06:23:09;12.75;;;7.28;;
32748;SDS011;19119;52.474;13.710;2023-08-21T06:25:35;8.43;;;6.63;;
32748;SDS011;19119;52.474;13.710;2023-08-21T06:28:01;12.50;;;7.65;;
32748;SDS011;19119;52.474;13.710;2023-08-21T06:30:27;10.07;;;6.82;;
32748;SDS011;19119;52.474;13.710;2023-08-21T06:32:52;9.30;;;6.22;;
32748;SDS011;19119;52.474;13.710;2023-08-21T06:35:18;9.63;;;6.68;;
32748;SDS011;19119;52.474;13.710;2023-08-21T06:37:44;10.23;;;6.63;;
32748;SDS011;19119;52.474;13.710;2023-08-21T06:40:09;9.20;;;6.38;;
32748;SDS011;19119;52.474;13.710;2023-08-21T06:42:36;8.68;;;6.38;;
32748;SDS011;19119;52.474;13.710;2023-08-21T06:45:02;10.30;;;6.57;;
32748;SDS011;19119;52.474;13.710;2023-08-21T06:47:31;9.73;;;6.32;;
32748;SDS011;19119;52.474;13.710;2023-08-21T06:49:57;10.63;;;6.35;;
32748;SDS011;19119;52.474;13.710;2023-08-21T06:52:23;7.30;;;6.20;;
32748;SDS011;19119;52.474;13.710;2023-08-21T06:54:48;9.02;;;6.47;;
32748;SDS011;19119;52.474;13.710;2023-08-21T06:57:14;10.80;;;6.75;;
32748;SDS011;19119;52.474;13.710;2023-08-21T06:59:39;9.73;;;6.03;;
32748;SDS011;19119;52.474;13.710;2023-08-21T07:02:05;9.93;;;6.60;;
32748;SDS011;19119;52.474;13.710;2023-08-21T07:04:31;9.65;;;6.55;;
32748;SDS011;19119;52.474;13.710;2023-08-21T07:06:58;8.73;;;5.93;;
32748;SDS011;19119;52.474;13.710;2023-08-21T07:09:24;10.70;;;6.38;;
32748;SDS011;19119;52.474;13.710;2023-08-21T07:11:49;9.52;;;5.55;;
32748;SDS011;19119;52.474;13.710;2023-08-21T07:14:15;10.90;;;6.68;;
32748;SDS011;19119;52.474;13.710;2023-08-21T07:16:42;10.68;;;6.10;;
32748;SDS011;19119;52.474;13.710;2023-08-21T07:19:08;7.93;;;5.20;;
32748;SDS011;19119;52.474;13.710;2023-08-21T07:21:33;9.60;;;6.22;;
32748;SDS011;19119;52.474;13.710;2023-08-21T07:24:02;10.57;;;6.68;;
32748;SDS011;19119;52.474;13.710;2023-08-21T07:26:27;13.18;;;6.07;;
32748;SDS011;19119;52.474;13.710;2023-08-21T07:28:53;8.70;;;5.55;;
32748;SDS011;19119;52.474;13.710;2023-08-21T07:31:19;7.78;;;5.75;;
32748;SDS011;19119;52.474;13.710;2023-08-21T07:33:44;12.40;;;6.53;;
32748;SDS011;19119;52.474;13.710;2023-08-21T07:36:10;8.20;;;5.68;;
32748;SDS011;19119;52.474;13.710;2023-08-21T07:38:40;7.38;;;5.40;;
32748;SDS011;19119;52.474;13.710;2023-08-21T07:41:09;7.88;;;5.78;;
32748;SDS011;19119;52.474;13.710;2023-08-21T07:43:36;10.57;;;6.05;;
32748;SDS011;19119;52.474;13.710;2023-08-21T07:46:03;10.40;;;6.32;;
32748;SDS011;19119;52.474;13.710;2023-08-21T07:48:29;8.38;;;5.97;;
32748;SDS011;19119;52.474;13.710;2023-08-21T07:50:55;12.18;;;5.80;;
32748;SDS011;19119;52.474;13.710;2023-08-21T07:53:21;9.00;;;6.13;;
32748;SDS011;19119;52.474;13.710;2023-08-21T07:55:47;10.30;;;7.05;;
32748;SDS011;19119;52.474;13.710;2023-08-21T07:58:12;8.95;;;6.40;;
32748;SDS011;19119;52.474;13.710;2023-08-21T08:00:38;10.88;;;6.80;;
32748;SDS011;19119;52.474;13.710;2023-08-21T08:03:04;11.20;;;5.93;;
32748;SDS011;19119;52.474;13.710;2023-08-21T08:05:30;8.95;;;6.15;;
32748;SDS011;19119;52.474;13.710;2023-08-21T08:07:56;9.65;;;6.47;;
32748;SDS011;19119;52.474;13.710;2023-08-21T08:10:22;14.00;;;6.25;;
32748;SDS011;19119;52.474;13.710;2023-08-21T08:12:48;10.55;;;6.40;;
32748;SDS011;19119;52.474;13.710;2023-08-21T08:15:14;13.25;;;6.72;;
32748;SDS011;19119;52.474;13.710;2023-08-21T08:17:39;8.65;;;7.20;;
32748;SDS011;19119;52.474;13.710;2023-08-21T08:20:05;7.70;;;6.15;;
32748;SDS011;19119;52.474;13.710;2023-08-21T08:22:31;8.00;;;6.70;;
32748;SDS011;19119;52.474;13.710;2023-08-21T08:24:57;9.68;;;6.18;;
32748;SDS011;19119;52.474;13.710;2023-08-21T08:27:22;8.93;;;5.72;;
32748;SDS011;19119;52.474;13.710;2023-08-21T08:29:48;9.52;;;5.22;;
32748;SDS011;19119;52.474;13.710;2023-08-21T08:32:14;7.22;;;4.35;;
32748;SDS011;19119;52.474;13.710;2023-08-21T08:34:40;6.82;;;4.13;;
32748;SDS011;19119;52.474;13.710;2023-08-21T08:37:05;11.70;;;4.60;;
32748;SDS011;19119;52.474;13.710;2023-08-21T08:39:31;9.98;;;5.18;;
32748;SDS011;19119;52.474;13.710;2023-08-21T08:41:58;9.07;;;4.10;;
32748;SDS011;19119;52.474;13.710;2023-08-21T08:44:28;6.97;;;3.92;;
32748;SDS011;19119;52.474;13.710;2023-08-21T08:46:55;7.22;;;3.67;;
32748;SDS011;19119;52.474;13.710;2023-08-21T08:49:21;9.60;;;3.42;;
32748;SDS011;19119;52.474;13.710;2023-08-21T08:51:49;6.18;;;3.20;;
32748;SDS011;19119;52.474;13.710;2023-08-21T08:54:16;5.65;;;3.05;;
32748;SDS011;19119;52.474;13.710;2023-08-21T08:56:43;4.60;;;3.00;;
32748;SDS011;19119;52.474;13.710;2023-08-21T08:59:09;10.00;;;3.58;;
32748;SDS011;19119;52.474;13.710;2023-08-21T09:01:35;7.70;;;3.00;;
32748;SDS011;19119;52.474;13.710;2023-08-21T09:04:01;8.10;;;3.35;;
32748;SDS011;19119;52.474;13.710;2023-08-21T09:06:27;9.85;;;3.20;;
32748;SDS011;19119;52.474;13.710;2023-08-21T09:08:54;6.40;;;3.30;;
32748;SDS011;19119;52.474;13.710;2023-08-21T09:11:20;5.90;;;3.63;;
32748;SDS011;19119;52.474;13.710;2023-08-21T09:13:45;5.07;;;2.88;;
32748;SDS011;19119;52.474;13.710;2023-08-21T09:16:14;6.88;;;3.22;;
32748;SDS011;19119;52.474;13.710;2023-08-21T09:18:51;8.15;;;3.30;;
32748;SDS011;19119;52.474;13.710;2023-08-21T09:21:27;9.63;;;3.95;;
32748;SDS011;19119;52.474;13.710;2023-08-21T09:23:57;8.35;;;2.88;;
32748;SDS011;19119;52.474;13.710;2023-08-21T09:26:24;5.65;;;2.70;;
32748;SDS011;19119;52.474;13.710;2023-08-21T09:28:50;4.30;;;2.63;;
32748;SDS011;19119;52.474;13.710;2023-08-21T09:31:23;3.97;;;2.80;;
32748;SDS011;19119;52.474;13.710;2023-08-21T09:34:04;7.72;;;3.85;;
32748;SDS011;19119;52.474;13.710;2023-08-21T09:36:30;5.85;;;3.30;;
32748;SDS011;19119;52.474;13.710;2023-08-21T09:38:56;7.22;;;3.83;;
32748;SDS011;19119;52.474;13.710;2023-08-21T09:41:22;5.88;;;2.88;;
32748;SDS011;19119;52.474;13.710;2023-08-21T09:43:48;5.55;;;2.80;;
32748;SDS011;19119;52.474;13.710;2023-08-21T09:46:14;7.43;;;3.22;;
32748;SDS011;19119;52.474;13.710;2023-08-21T09:48:44;4.93;;;2.80;;
32748;SDS011;19119;52.474;13.710;2023-08-21T09:51:13;7.90;;;3.22;;
32748;SDS011;19119;52.474;13.710;2023-08-21T09:53:38;9.27;;;2.78;;
32748;SDS011;19119;52.474;13.710;2023-08-21T09:56:05;4.55;;;2.22;;
32748;SDS011;19119;52.474;13.710;2023-08-21T09:58:31;4.90;;;2.38;;
32748;SDS011;19119;52.474;13.710;2023-08-21T10:00:57;3.47;;;2.00;;
32748;SDS011;19119;52.474;13.710;2023-08-21T10:03:24;5.63;;;2.42;;
32748;SDS011;19119;52.474;13.710;2023-08-21T10:05:51;10.55;;;2.80;;
32748;SDS011;19119;52.474;13.710;2023-08-21T10:08:21;5.22;;;2.65;;
32748;SDS011;19119;52.474;13.710;2023-08-21T10:11:08;5.13;;;1.80;;
32748;SDS011;19119;52.474;13.710;2023-08-21T10:13:36;6.93;;;1.63;;
32748;SDS011;19119;52.474;13.710;2023-08-21T10:16:04;3.30;;;1.50;;
32748;SDS011;19119;52.474;13.710;2023-08-21T10:18:34;7.50;;;1.58;;
32748;SDS011;19119;52.474;13.710;2023-08-21T10:21:11;3.65;;;0.88;;
32748;SDS011;19119;52.474;13.710;2023-08-21T10:23:37;5.50;;;1.33;;
32748;SDS011;19119;52.474;13.710;2023-08-21T10:26:06;7.63;;;1.15;;
32748;SDS011;19119;52.474;13.710;2023-08-21T10:28:42;2.75;;;1.00;;
32748;SDS011;19119;52.474;13.710;2023-08-21T10:31:27;2.22;;;1.23;;
32748;SDS011;19119;52.474;13.710;2023-08-21T10:33:58;2.35;;;1.00;;
32748;SDS011;19119;52.474;13.710;2023-08-21T10:39:22;1.80;;;0.90;;
32748;SDS011;19119;52.474;13.710;2023-08-21T10:42:10;2.65;;;0.85;;
32748;SDS011;19119;52.474;13.710;2023-08-21T10:47:30;4.57;;;1.15;;
32748;SDS011;19119;52.474;13.710;2023-08-21T10:50:01;4.75;;;1.10;;
32748;SDS011;19119;52.474;13.710;2023-08-21T10:54:57;5.78;;;1.40;;
32748;SDS011;19119;52.474;13.710;2023-08-21T10:57:23;4.97;;;1.58;;
32748;SDS011;19119;52.474;13.710;2023-08-21T10:59:50;8.98;;;1.45;;
32748;SDS011;19119;52.474;13.710;2023-08-21T11:02:29;2.38;;;1.00;;
32748;SDS011;19119;52.474;13.710;2023-08-21T11:04:55;2.67;;;0.98;;
32748;SDS011;19119;52.474;13.710;2023-08-21T11:07:21;3.35;;;1.20;;
32748;SDS011;19119;52.474;13.710;2023-08-21T11:09:47;4.28;;;1.55;;
32748;SDS011;19119;52.474;13.710;2023-08-21T11:12:17;3.17;;;1.10;;
32748;SDS011;19119;52.474;13.710;2023-08-21T11:14:44;3.13;;;1.15;;
32748;SDS011;19119;52.474;13.710;2023-08-21T11:17:10;2.25;;;0.90;;
32748;SDS011;19119;52.474;13.710;2023-08-21T11:19:36;2.78;;;1.00;;
32748;SDS011;19119;52.474;13.710;2023-08-21T11:22:03;4.50;;;1.20;;
32748;SDS011;19119;52.474;13.710;2023-08-21T11:27:02;2.95;;;0.77;;
32748;SDS011;19119;52.474;13.710;2023-08-21T11:29:29;3.83;;;1.33;;
32748;SDS011;19119;52.474;13.710;2023-08-21T11:32:33;2.45;;;0.80;;
32748;SDS011;19119;52.474;13.710;2023-08-21T11:35:38;5.28;;;0.90;;
32748;SDS011;19119;52.474;13.710;2023-08-21T11:38:05;3.35;;;1.20;;
32748;SDS011;19119;52.474;13.710;2023-08-21T11:40:34;4.45;;;1.13;;
32748;SDS011;19119;52.474;13.710;2023-08-21T11:43:00;3.33;;;1.10;;
32748;SDS011;19119;52.474;13.710;2023-08-21T11:45:27;3.95;;;1.55;;
32748;SDS011;19119;52.474;13.710;2023-08-21T11:47:55;7.38;;;1.20;;
32748;SDS011;19119;52.474;13.710;2023-08-21T11:50:21;3.05;;;1.00;;
32748;SDS011;19119;52.474;13.710;2023-08-21T11:52:46;2.47;;;1.05;;
32748;SDS011;19119;52.474;13.710;2023-08-21T11:55:12;3.33;;;1.15;;
32748;SDS011;19119;52.474;13.710;2023-08-21T11:57:50;5.15;;;1.55;;
32748;SDS011;19119;52.474;13.710;2023-08-21T12:00:18;3.28;;;1.17;;
32748;SDS011;19119;52.474;13.710;2023-08-21T12:02:53;4.38;;;1.10;;
32748;SDS011;19119;52.474;13.710;2023-08-21T12:05:21;5.70;;;1.33;;
32748;SDS011;19119;52.474;13.710;2023-08-21T12:07:46;2.40;;;1.02;;
32748;SDS011;19119;52.474;13.710;2023-08-21T12:10:12;3.25;;;1.23;;
32748;SDS011;19119;52.474;13.710;2023-08-21T12:12:37;2.20;;;1.13;;
32748;SDS011;19119;52.474;13.710;2023-08-21T12:15:03;4.50;;;0.80;;
32748;SDS011;19119;52.474;13.710;2023-08-21T12:17:29;11.43;;;1.85;;
32748;SDS011;19119;52.474;13.710;2023-08-21T12:19:54;7.22;;;1.38;;
32748;SDS011;19119;52.474;13.710;2023-08-21T12:22:20;4.88;;;1.42;;
32748;SDS011;19119;52.474;13.710;2023-08-21T12:24:45;3.53;;;1.15;;
32748;SDS011;19119;52.474;13.710;2023-08-21T12:27:11;4.57;;;1.20;;
32748;SDS011;19119;52.474;13.710;2023-08-21T12:29:36;3.38;;;1.33;;
32748;SDS011;19119;52.474;13.710;2023-08-21T12:32:02;4.38;;;1.10;;
32748;SDS011;19119;52.474;13.710;2023-08-21T12:34:28;4.20;;;1.05;;
32748;SDS011;19119;52.474;13.710;2023-08-21T12:36:53;4.78;;;1.00;;
32748;SDS011;19119;52.474;13.710;2023-08-21T12:39:19;3.88;;;1.48;;
32748;SDS011;19119;52.474;13.710;2023-08-21T12:41:45;3.47;;;1.10;;
32748;SDS011;19119;52.474;13.710;2023-08-21T12:44:11;2.97;;;1.10;;
32748;SDS011;19119;52.474;13.710;2023-08-21T12:46:37;5.75;;;1.30;;
32748;SDS011;19119;52.474;13.710;2023-08-21T12:49:03;3.08;;;1.13;;
32748;SDS011;19119;52.474;13.710;2023-08-21T12:51:29;5.95;;;1.20;;
32748;SDS011;19119;52.474;13.710;2023-08-21T12:53:55;3.75;;;1.20;;
32748;SDS011;19119;52.474;13.710;2023-08-21T12:56:20;5.75;;;0.93;;
32748;SDS011;19119;52.474;13.710;2023-08-21T12:58:47;10.32;;;9.27;;
32748;SDS011;19119;52.474;13.710;2023-08-21T13:01:13;10.05;;;9.15;;
32748;SDS011;19119;52.474;13.710;2023-08-21T13:03:39;11.02;;;10.32;;
32748;SDS011;19119;52.474;13.710;2023-08-21T13:06:09;8.85;;;8.15;;
32748;SDS011;19119;52.474;13.710;2023-08-21T13:08:35;11.05;;;10.25;;
32748;SDS011;19119;52.474;13.710;2023-08-21T13:11:00;10.40;;;9.70;;
32748;SDS011;19119;52.474;13.710;2023-08-21T13:13:27;11.80;;;10.77;;
32748;SDS011;19119;52.474;13.710;2023-08-21T13:15:53;9.70;;;9.05;;
32748;SDS011;19119;52.474;13.710;2023-08-21T13:18:19;10.13;;;9.32;;
32748;SDS011;19119;52.474;13.710;2023-08-21T13:20:45;10.63;;;9.75;;
32748;SDS011;19119;52.474;13.710;2023-08-21T13:23:11;10.27;;;9.48;;
32748;SDS011;19119;52.474;13.710;2023-08-21T13:25:36;10.75;;;10.02;;
32748;SDS011;19119;52.474;13.710;2023-08-21T13:28:02;10.88;;;10.18;;
32748;SDS011;19119;52.474;13.710;2023-08-21T13:30:29;9.95;;;9.35;;
32748;SDS011;19119;52.474;13.710;2023-08-21T13:32:55;10.57;;;9.63;;
32748;SDS011;19119;52.474;13.710;2023-08-21T13:38:43;11.20;;;10.35;;
32748;SDS011;19119;52.474;13.710;2023-08-21T13:47:16;11.52;;;10.50;;
32748;SDS011;19119;52.474;13.710;2023-08-21T13:49:41;9.52;;;8.82;;
32748;SDS011;19119;52.474;13.710;2023-08-21T13:52:07;10.50;;;9.27;;
32748;SDS011;19119;52.474;13.710;2023-08-21T13:54:32;11.77;;;11.07;;
32748;SDS011;19119;52.474;13.710;2023-08-21T13:56:58;10.82;;;10.13;;
32748;SDS011;19119;52.474;13.710;2023-08-21T13:59:24;10.57;;;9.60;;
32748;SDS011;19119;52.474;13.710;2023-08-21T14:01:50;10.85;;;9.90;;
32748;SDS011;19119;52.474;13.710;2023-08-21T14:04:16;11.25;;;10.32;;
32748;SDS011;19119;52.474;13.710;2023-08-21T14:06:41;10.13;;;9.40;;
32748;SDS011;19119;52.474;13.710;2023-08-21T14:09:07;7.18;;;6.57;;
32748;SDS011;19119;52.474;13.710;2023-08-21T14:11:32;10.68;;;9.77;;
32748;SDS011;19119;52.474;13.710;2023-08-21T14:13:58;11.32;;;10.52;;
32748;SDS011;19119;52.474;13.710;2023-08-21T14:16:23;9.70;;;9.02;;
32748;SDS011;19119;52.474;13.710;2023-08-21T14:18:49;10.05;;;9.23;;
32748;SDS011;19119;52.474;13.710;2023-08-21T14:21:14;10.60;;;9.80;;
32748;SDS011;19119;52.474;13.710;2023-08-21T14:23:40;64.18;;;11.10;;
32748;SDS011;19119;52.474;13.710;2023-08-21T14:26:05;9.68;;;8.88;;
32748;SDS011;19119;52.474;13.710;2023-08-21T14:28:31;10.25;;;9.60;;
32748;SDS011;19119;52.474;13.710;2023-08-21T14:30:56;11.10;;;10.20;;
32748;SDS011;19119;52.474;13.710;2023-08-21T14:33:22;9.13;;;8.63;;
32748;SDS011;19119;52.474;13.710;2023-08-21T14:35:48;12.70;;;9.85;;
32748;SDS011;19119;52.474;13.710;2023-08-21T14:38:14;10.27;;;9.63;;
32748;SDS011;19119;52.474;13.710;2023-08-21T14:40:39;12.10;;;11.20;;
32748;SDS011;19119;52.474;13.710;2023-08-21T14:43:05;9.93;;;9.07;;
32748;SDS011;19119;52.474;13.710;2023-08-21T14:45:31;11.68;;;10.60;;